createdAt,value
2018-06-23T00:01:43.232Z,12.80
2018-06-23T00:04:11.617Z,12.80
2018-06-23T00:06:40.033Z,12.90
2018-06-23T00:09:08.461Z,12.90
2018-06-23T00:11:36.877Z,12.80
2018-06-23T00:14:05.316Z,12.80
2018-06-23T00:16:34.328Z,12.80
2018-06-23T00:19:02.707Z,12.70
2018-06-23T00:21:31.096Z,12.70
2018-06-23T00:23:59.504Z,12.60
2018-06-23T00:26:29.897Z,12.60
2018-06-23T00:28:58.692Z,12.60
2018-06-23T00:31:27.176Z,12.60
2018-06-23T00:33:55.565Z,12.70
2018-06-23T00:36:23.970Z,12.60
2018-06-23T00:38:52.321Z,12.70
2018-06-23T00:41:20.675Z,12.70
2018-06-23T00:43:49.059Z,12.60
2018-06-23T00:46:17.433Z,12.70
2018-06-23T00:48:45.840Z,12.70
2018-06-23T00:51:14.270Z,12.70
2018-06-23T00:53:42.663Z,12.70
2018-06-23T00:56:11.090Z,12.70
2018-06-23T00:58:50.705Z,12.80
2018-06-23T01:01:19.093Z,12.70
2018-06-23T01:03:47.461Z,12.70
2018-06-23T01:06:15.864Z,12.70
2018-06-23T01:08:44.318Z,12.70
2018-06-23T01:11:12.713Z,12.70
2018-06-23T01:13:41.093Z,12.80
2018-06-23T01:16:09.512Z,12.80
2018-06-23T01:18:38.461Z,12.90
2018-06-23T01:21:06.846Z,12.80
2018-06-23T01:23:35.248Z,12.80
2018-06-23T01:26:04.009Z,12.70
2018-06-23T01:28:32.387Z,12.70
2018-06-23T01:33:28.896Z,12.70
2018-06-23T01:35:57.317Z,12.80
2018-06-23T01:38:25.816Z,12.80
2018-06-23T01:40:54.210Z,12.80
2018-06-23T01:43:22.596Z,12.80
2018-06-23T01:45:51.024Z,12.80
2018-06-23T01:50:47.482Z,12.70
2018-06-23T01:53:15.874Z,12.70
2018-06-23T01:55:44.223Z,12.60
2018-06-23T01:58:12.728Z,12.60
2018-06-23T02:03:09.180Z,12.70
2018-06-23T02:05:37.653Z,12.70
2018-06-23T02:08:06.399Z,12.60
2018-06-23T02:10:34.795Z,12.50
2018-06-23T02:13:03.215Z,12.50
2018-06-23T02:15:36.868Z,12.50
2018-06-23T02:18:10.680Z,12.50
2018-06-23T02:20:44.356Z,12.50
2018-06-23T02:24:15.405Z,12.50
2018-06-23T02:26:49.094Z,12.40
2018-06-23T02:29:22.814Z,12.40
2018-06-23T02:31:56.619Z,12.40
2018-06-23T02:34:30.391Z,12.30
2018-06-23T02:36:58.776Z,12.30
2018-06-23T02:41:55.357Z,12.20
2018-06-23T02:44:23.785Z,12.20
2018-06-23T02:46:52.169Z,12.10
2018-06-23T02:49:20.619Z,12.10
2018-06-23T02:51:49.000Z,12.10
2018-06-23T02:54:17.385Z,12.10
2018-06-23T02:56:45.778Z,12.10
2018-06-23T02:59:14.795Z,12.00
2018-06-23T03:01:43.142Z,12.00
2018-06-23T03:04:11.519Z,12.00
2018-06-23T03:06:40.462Z,12.00
2018-06-23T03:09:08.882Z,12.00
2018-06-23T03:11:37.266Z,12.00
2018-06-23T03:14:05.677Z,12.00
2018-06-23T03:16:34.070Z,12.00
2018-06-23T03:19:02.541Z,12.10
2018-06-23T03:21:31.249Z,12.10
2018-06-23T03:23:59.625Z,12.10
2018-06-23T03:26:28.023Z,12.10
2018-06-23T03:28:56.511Z,12.00
2018-06-23T03:31:24.920Z,12.00
2018-06-23T03:33:53.364Z,12.00
2018-06-23T03:36:21.784Z,12.00
2018-06-23T03:38:50.150Z,12.10
2018-06-23T03:41:18.548Z,12.10
2018-06-23T03:43:46.999Z,12.10
2018-06-23T03:48:43.601Z,12.10
2018-06-23T03:51:11.995Z,12.10
2018-06-23T03:56:08.437Z,12.10
2018-06-23T03:58:36.793Z,12.10
2018-06-23T04:01:06.919Z,12.10
2018-06-23T04:03:35.869Z,12.10
2018-06-23T04:06:04.344Z,12.00
2018-06-23T04:08:33.340Z,12.10
2018-06-23T04:11:02.857Z,12.10
2018-06-23T04:13:31.493Z,12.10
2018-06-23T04:15:59.913Z,12.10
2018-06-23T04:18:28.310Z,12.10
2018-06-23T04:20:56.707Z,12.00
2018-06-23T04:23:25.104Z,12.00
2018-06-23T04:25:53.529Z,11.90
2018-06-23T04:28:21.874Z,11.90
2018-06-23T04:30:50.581Z,11.90
2018-06-23T04:33:18.947Z,11.90
2018-06-23T04:35:47.401Z,11.90
2018-06-23T04:38:15.785Z,11.90
2018-06-23T04:40:44.200Z,11.90
2018-06-23T04:43:12.582Z,11.90
2018-06-23T04:45:40.992Z,11.80
2018-06-23T04:48:09.933Z,11.70
2018-06-23T04:53:06.460Z,11.80
2018-06-23T04:55:35.697Z,11.90
2018-06-23T04:58:04.213Z,11.90
2018-06-23T05:00:32.670Z,11.90
2018-06-23T05:03:00.987Z,11.90
2018-06-23T05:05:29.376Z,11.80
2018-06-23T05:07:57.776Z,11.80
2018-06-23T05:10:27.117Z,11.90
2018-06-23T05:12:55.531Z,11.90
2018-06-23T05:15:23.930Z,11.90
2018-06-23T05:17:52.308Z,11.90
2018-06-23T05:20:20.880Z,11.90
2018-06-23T05:22:49.555Z,12.00
2018-06-23T05:25:17.958Z,12.00
2018-06-23T05:27:46.357Z,12.00
2018-06-23T05:30:14.714Z,12.00
2018-06-23T05:32:44.304Z,12.10
2018-06-23T05:35:12.817Z,12.20
2018-06-23T05:40:09.417Z,12.10
2018-06-23T05:42:37.825Z,12.20
2018-06-23T05:45:06.235Z,12.20
2018-06-23T05:47:34.628Z,12.20
2018-06-23T05:50:03.034Z,12.30
2018-06-23T05:52:31.457Z,12.30
2018-06-23T05:54:59.921Z,12.40
2018-06-23T05:57:28.363Z,12.50
2018-06-23T05:59:56.800Z,12.50
2018-06-23T06:02:25.235Z,12.50
2018-06-23T06:04:53.666Z,12.70
2018-06-23T06:07:22.104Z,12.80
2018-06-23T06:09:50.524Z,12.90
2018-06-23T06:12:19.003Z,12.90
2018-06-23T06:14:47.483Z,12.90
2018-06-23T06:17:23.213Z,12.80
2018-06-23T06:19:53.779Z,12.80
2018-06-23T06:22:23.884Z,12.80
2018-06-23T06:24:52.468Z,12.80
2018-06-23T06:27:20.955Z,12.90
2018-06-23T06:29:49.904Z,12.70
2018-06-23T06:32:18.390Z,12.70
2018-06-23T06:34:47.004Z,12.70
2018-06-23T06:37:15.401Z,12.70
2018-06-23T06:39:44.153Z,12.60
2018-06-23T06:42:12.734Z,12.40
2018-06-23T06:44:41.280Z,12.40
2018-06-23T06:47:11.146Z,12.40
2018-06-23T06:49:39.603Z,12.20
2018-06-23T06:52:07.992Z,12.00
2018-06-23T06:54:36.403Z,11.80
2018-06-23T06:57:04.877Z,11.70
2018-06-23T06:59:33.270Z,11.70
2018-06-23T07:02:02.322Z,11.80
2018-06-23T07:04:30.757Z,11.90
2018-06-23T07:06:59.215Z,12.00
2018-06-23T07:09:27.720Z,12.00
2018-06-23T07:11:56.126Z,12.10
2018-06-23T07:14:24.858Z,12.10
2018-06-23T07:16:53.408Z,12.10
2018-06-23T07:19:21.844Z,12.10
2018-06-23T07:21:50.258Z,11.90
2018-06-23T07:24:18.754Z,12.00
2018-06-23T07:26:47.480Z,12.10
2018-06-23T07:29:15.926Z,12.20
2018-06-23T07:31:44.328Z,12.20
2018-06-23T07:34:12.889Z,12.20
2018-06-23T07:36:41.314Z,12.30
2018-06-23T07:39:10.700Z,12.50
2018-06-23T07:41:39.335Z,12.70
2018-06-23T07:44:08.564Z,12.90
2018-06-23T07:46:37.021Z,13.00
2018-06-23T07:49:06.399Z,13.10
2018-06-23T07:51:35.966Z,13.10
2018-06-23T07:54:06.459Z,13.10
2018-06-23T07:56:34.853Z,13.00
2018-06-23T07:59:03.223Z,13.10
2018-06-23T08:01:31.729Z,13.10
2018-06-23T08:04:00.167Z,13.00
2018-06-23T08:06:28.587Z,13.10
2018-06-23T08:08:57.003Z,13.10
2018-06-23T08:11:25.404Z,13.10
2018-06-23T08:13:53.819Z,13.20
2018-06-23T08:16:22.205Z,13.20
2018-06-23T08:18:50.565Z,13.20
2018-06-23T08:21:18.960Z,13.30
2018-06-23T08:23:47.360Z,13.30
2018-06-23T08:26:15.764Z,13.40
2018-06-23T08:28:44.125Z,13.30
2018-06-23T08:31:12.522Z,13.40
2018-06-23T08:33:40.944Z,13.30
2018-06-23T08:36:09.448Z,13.50
2018-06-23T08:38:37.836Z,13.60
2018-06-23T08:41:06.293Z,13.80
2018-06-23T08:43:34.713Z,14.00
2018-06-23T08:46:03.169Z,14.00
2018-06-23T08:48:31.510Z,14.10
2018-06-23T08:53:28.106Z,14.10
2018-06-23T08:55:57.272Z,14.40
2018-06-23T09:00:53.922Z,14.80
2018-06-23T09:03:22.281Z,15.00
2018-06-23T09:05:50.665Z,15.00
2018-06-23T09:08:19.079Z,15.20
2018-06-23T09:10:47.485Z,15.10
2018-06-23T09:13:15.898Z,14.90
2018-06-23T09:15:44.600Z,15.00
2018-06-23T09:18:13.116Z,15.10
2018-06-23T09:20:41.690Z,14.90
2018-06-23T09:23:10.091Z,15.00
2018-06-23T09:25:38.473Z,15.20
2018-06-23T09:28:06.893Z,15.10
2018-06-23T09:30:35.279Z,15.30
2018-06-23T09:33:04.229Z,15.50
2018-06-23T09:35:32.562Z,15.50
2018-06-23T09:38:01.968Z,15.50
2018-06-23T09:40:30.790Z,15.60
2018-06-23T09:42:59.890Z,15.60
2018-06-23T09:45:28.283Z,15.60
2018-06-23T09:47:56.733Z,15.70
2018-06-23T09:50:25.112Z,16.00
2018-06-23T09:52:53.528Z,16.60
2018-06-23T09:55:21.933Z,16.80
2018-06-23T09:57:50.302Z,16.80
2018-06-23T10:00:22.975Z,16.70
2018-06-23T10:02:51.418Z,16.70
2018-06-23T10:05:19.787Z,16.70
2018-06-23T10:07:48.203Z,17.00
2018-06-23T10:10:16.757Z,17.70
2018-06-23T10:12:45.752Z,18.10
2018-06-23T10:15:14.144Z,18.40
2018-06-23T10:17:42.601Z,18.70
2018-06-23T10:20:10.980Z,18.70
2018-06-23T10:22:39.366Z,18.90
2018-06-23T10:25:07.763Z,18.90
2018-06-23T10:27:36.159Z,19.00
2018-06-23T10:30:04.828Z,19.20
2018-06-23T10:32:33.185Z,19.40
2018-06-23T10:35:01.612Z,18.90
2018-06-23T10:37:30.004Z,18.90
2018-06-23T10:39:58.397Z,19.30
2018-06-23T10:42:26.931Z,19.50
2018-06-23T10:44:55.917Z,20.10
2018-06-23T10:47:24.298Z,20.40
2018-06-23T10:49:52.741Z,20.50
2018-06-23T10:52:21.163Z,20.20
2018-06-23T10:54:49.569Z,20.10
2018-06-23T10:57:17.972Z,20.20
2018-06-23T10:59:46.375Z,20.30
2018-06-23T11:02:14.774Z,20.20
2018-06-23T11:04:43.251Z,20.20
2018-06-23T11:07:11.663Z,20.20
2018-06-23T11:09:40.148Z,19.90
2018-06-23T11:12:08.612Z,20.00
2018-06-23T11:14:37.047Z,20.00
2018-06-23T11:17:05.513Z,20.00
2018-06-23T11:19:33.951Z,20.10
2018-06-23T11:22:02.322Z,20.40
2018-06-23T11:24:30.920Z,20.60
2018-06-23T11:26:59.607Z,20.70
2018-06-23T11:29:27.983Z,20.70
2018-06-23T11:31:57.240Z,20.80
2018-06-23T11:34:25.661Z,21.00
2018-06-23T11:36:54.610Z,20.90
2018-06-23T11:39:23.019Z,20.40
2018-06-23T11:41:51.421Z,20.20
2018-06-23T11:44:19.806Z,20.10
2018-06-23T11:46:48.204Z,20.10
2018-06-23T11:49:16.587Z,20.00
2018-06-23T11:51:44.978Z,19.30
2018-06-23T11:54:13.572Z,18.60
2018-06-23T11:56:42.033Z,18.50
2018-06-23T11:59:11.537Z,18.40
2018-06-23T12:01:40.054Z,18.20
2018-06-23T12:04:08.509Z,17.90
2018-06-23T12:06:36.950Z,18.00
2018-06-23T12:09:07.928Z,18.10
2018-06-23T12:11:36.362Z,18.00
2018-06-23T12:14:04.761Z,18.20
2018-06-23T12:16:33.119Z,18.40
2018-06-23T12:19:01.605Z,18.60
2018-06-23T12:21:30.009Z,18.40
2018-06-23T12:23:58.403Z,18.80
2018-06-23T12:26:26.802Z,19.10
2018-06-23T12:28:55.159Z,19.50
2018-06-23T12:31:23.576Z,19.50
2018-06-23T12:33:51.940Z,19.60
2018-06-23T12:38:48.581Z,20.00
2018-06-23T12:41:16.960Z,20.00
2018-06-23T12:43:45.328Z,19.90
2018-06-23T12:46:13.695Z,19.60
2018-06-23T12:48:42.155Z,19.00
2018-06-23T12:51:10.568Z,18.80
2018-06-23T12:53:39.015Z,18.50
2018-06-23T12:56:07.507Z,18.40
2018-06-23T12:58:35.898Z,18.10
2018-06-23T13:01:04.384Z,17.80
2018-06-23T13:03:33.481Z,17.60
2018-06-23T13:06:01.895Z,17.40
2018-06-23T13:10:59.684Z,16.90
2018-06-23T13:13:28.030Z,16.80
2018-06-23T13:15:56.465Z,16.60
2018-06-23T13:18:24.882Z,16.50
2018-06-23T13:20:53.306Z,16.60
2018-06-23T13:23:21.906Z,16.60
2018-06-23T13:25:50.315Z,16.70
2018-06-23T13:28:18.678Z,16.50
2018-06-23T13:30:47.038Z,16.50
2018-06-23T13:33:15.528Z,16.50
2018-06-23T13:35:43.864Z,16.70
2018-06-23T13:38:12.320Z,17.00
2018-06-23T13:40:40.722Z,17.30
2018-06-23T13:43:10.221Z,17.00
2018-06-23T13:45:38.676Z,17.30
2018-06-23T13:48:07.099Z,17.10
2018-06-23T13:50:35.515Z,17.40
2018-06-23T13:53:04.301Z,17.60
2018-06-23T13:55:32.816Z,17.80
2018-06-23T13:58:01.248Z,17.60
2018-06-23T14:00:29.674Z,17.40
2018-06-23T14:02:58.261Z,17.40
2018-06-23T14:05:26.632Z,17.30
2018-06-23T14:07:55.103Z,17.50
2018-06-23T14:10:23.896Z,17.40
2018-06-23T14:12:52.506Z,17.10
2018-06-23T14:15:20.945Z,17.20
2018-06-23T14:17:49.351Z,17.50
2018-06-23T14:20:17.804Z,17.70
2018-06-23T14:22:46.779Z,17.80
2018-06-23T14:25:15.246Z,18.00
2018-06-23T14:27:43.757Z,18.10
2018-06-23T14:30:12.144Z,18.30
2018-06-23T14:32:40.778Z,18.20
2018-06-23T14:35:09.285Z,18.30
2018-06-23T14:37:37.662Z,18.00
2018-06-23T14:40:06.108Z,17.80
2018-06-23T14:42:34.575Z,17.70
2018-06-23T14:45:02.985Z,17.40
2018-06-23T14:47:31.371Z,17.30
2018-06-23T14:49:59.910Z,17.20
2018-06-23T14:52:28.481Z,17.20
2018-06-23T14:54:57.043Z,17.10
2018-06-23T14:57:26.062Z,17.20
2018-06-23T14:59:54.664Z,17.10
2018-06-23T15:02:23.052Z,17.20
2018-06-23T15:04:51.487Z,17.10
2018-06-23T15:07:19.838Z,17.00
2018-06-23T15:09:59.659Z,16.70
2018-06-23T15:12:39.342Z,16.30
2018-06-23T15:15:07.722Z,16.00
2018-06-23T15:17:36.099Z,15.70
2018-06-23T15:20:04.515Z,15.50
2018-06-23T15:22:32.934Z,15.30
2018-06-23T15:25:01.352Z,15.20
2018-06-23T15:27:29.852Z,15.20
2018-06-23T15:29:58.228Z,15.00
2018-06-23T15:32:26.615Z,15.10
2018-06-23T15:34:55.530Z,15.20
2018-06-23T15:37:23.899Z,15.30
2018-06-23T15:39:52.334Z,15.40
2018-06-23T15:42:20.746Z,15.50
2018-06-23T15:44:49.176Z,15.50
2018-06-23T15:47:17.642Z,15.50
2018-06-23T15:49:46.095Z,15.60
2018-06-23T15:52:14.467Z,15.80
2018-06-23T15:54:42.845Z,16.00
2018-06-23T15:57:11.430Z,16.10
2018-06-23T15:59:39.810Z,16.20
2018-06-23T16:02:08.214Z,16.20
2018-06-23T16:04:36.692Z,16.20
2018-06-23T16:07:05.364Z,16.30
2018-06-23T16:09:33.777Z,16.40
2018-06-23T16:12:02.190Z,16.30
2018-06-23T16:14:30.568Z,16.10
2018-06-23T16:16:58.959Z,16.10
2018-06-23T16:19:27.380Z,16.10
2018-06-23T16:21:55.807Z,16.10
2018-06-23T16:24:24.231Z,16.10
2018-06-23T16:26:52.640Z,16.10
2018-06-23T16:29:21.044Z,16.20
2018-06-23T16:31:49.436Z,16.20
2018-06-23T16:34:17.827Z,16.20
2018-06-23T16:36:46.231Z,16.20
2018-06-23T16:39:14.596Z,16.30
2018-06-23T16:41:43.086Z,16.10
2018-06-23T16:44:11.597Z,15.90
2018-06-23T16:46:39.981Z,15.90
2018-06-23T16:49:08.359Z,15.90
2018-06-23T16:51:36.758Z,16.00
2018-06-23T16:54:05.149Z,16.10
2018-06-23T16:56:33.693Z,16.20
2018-06-23T16:59:02.045Z,16.20
2018-06-23T17:01:30.463Z,16.20
2018-06-23T17:03:58.926Z,16.10
2018-06-23T17:06:28.463Z,16.00
2018-06-23T17:08:56.851Z,15.90
2018-06-23T17:11:25.383Z,15.70
2018-06-23T17:13:54.287Z,15.60
2018-06-23T17:16:22.836Z,15.50
2018-06-23T17:18:51.213Z,15.50
2018-06-23T17:21:19.734Z,15.30
2018-06-23T17:23:48.292Z,15.20
2018-06-23T17:26:16.752Z,15.20
2018-06-23T17:28:45.258Z,15.10
2018-06-23T17:31:14.458Z,15.00
2018-06-23T17:33:42.904Z,15.00
2018-06-23T17:36:11.547Z,15.10
2018-06-23T17:38:40.008Z,15.00
2018-06-23T17:41:08.836Z,14.90
2018-06-23T17:43:37.261Z,14.80
2018-06-23T17:46:05.708Z,14.90
2018-06-23T17:48:34.288Z,14.80
2018-06-23T17:51:02.930Z,14.80
2018-06-23T17:53:31.619Z,14.70
2018-06-23T17:56:00.198Z,14.70
2018-06-23T17:58:28.633Z,14.60
2018-06-23T18:00:57.124Z,14.60
2018-06-23T18:03:25.560Z,14.50
2018-06-23T18:05:54.080Z,14.60
2018-06-23T18:08:23.265Z,14.60
2018-06-23T18:10:51.766Z,14.60
2018-06-23T18:13:20.212Z,14.40
2018-06-23T18:15:48.787Z,14.40
2018-06-23T18:18:17.224Z,14.40
2018-06-23T18:23:13.820Z,14.30
2018-06-23T18:25:42.302Z,14.20
2018-06-23T18:28:10.745Z,14.10
2018-06-23T18:30:39.157Z,14.10
2018-06-23T18:33:07.596Z,14.10
2018-06-23T18:35:35.995Z,13.90
2018-06-23T18:38:04.841Z,13.80
2018-06-23T18:40:33.322Z,13.80
2018-06-23T18:43:01.800Z,13.80
2018-06-23T18:45:30.227Z,13.70
2018-06-23T18:50:27.103Z,13.50
2018-06-23T18:55:23.829Z,13.50
2018-06-23T18:57:52.233Z,13.50
2018-06-23T19:00:20.770Z,13.40
2018-06-23T19:02:49.175Z,13.30
2018-06-23T19:05:17.616Z,13.20
2018-06-23T19:07:46.223Z,13.30
2018-06-23T19:10:14.774Z,13.20
2018-06-23T19:12:43.852Z,13.20
2018-06-23T19:15:12.282Z,13.20
2018-06-23T19:17:40.998Z,13.20
2018-06-23T19:20:09.447Z,13.20
2018-06-23T19:22:37.909Z,13.20
2018-06-23T19:25:06.577Z,13.10
2018-06-23T19:27:35.924Z,13.20
2018-06-23T19:30:04.599Z,13.10
2018-06-23T19:32:32.955Z,13.10
2018-06-23T19:35:01.605Z,13.20
2018-06-23T19:37:30.009Z,13.20
2018-06-23T19:39:58.478Z,13.20
2018-06-23T19:42:26.871Z,13.20
2018-06-23T19:44:55.338Z,13.20
2018-06-23T19:47:23.895Z,13.10
2018-06-23T19:49:52.454Z,13.10
2018-06-23T19:52:20.899Z,13.10
2018-06-23T19:54:49.294Z,13.10
2018-06-23T19:57:17.870Z,13.10
2018-06-23T19:59:46.395Z,13.10
2018-06-23T20:02:14.843Z,13.10
2018-06-23T20:04:43.251Z,13.10
2018-06-23T20:07:11.716Z,13.10
2018-06-23T20:09:40.206Z,13.10
2018-06-23T20:12:08.680Z,13.10
2018-06-23T20:14:37.270Z,13.10
2018-06-23T20:17:06.196Z,13.10
2018-06-23T20:19:34.669Z,13.10
2018-06-23T20:22:03.145Z,13.10
2018-06-23T20:24:31.669Z,13.10
2018-06-23T20:27:00.109Z,13.10
2018-06-23T20:29:28.481Z,13.10
2018-06-23T20:31:56.910Z,13.10
2018-06-23T20:34:25.305Z,12.90
2018-06-23T20:36:53.843Z,12.90
2018-06-23T20:39:22.232Z,12.90
2018-06-23T20:41:50.665Z,12.90
2018-06-23T20:44:19.072Z,12.90
2018-06-23T20:46:47.472Z,12.80
2018-06-23T20:49:16.165Z,12.70
2018-06-23T20:51:44.613Z,12.70
2018-06-23T20:54:13.182Z,12.70
2018-06-23T20:56:42.081Z,12.70
2018-06-23T20:59:10.526Z,12.70
2018-06-23T21:01:38.981Z,12.60
2018-06-23T21:04:07.389Z,12.60
2018-06-23T21:06:35.918Z,12.60
2018-06-23T21:09:06.338Z,12.70
2018-06-23T21:11:34.786Z,12.70
2018-06-23T21:14:03.263Z,12.70
2018-06-23T21:16:31.797Z,12.70
2018-06-23T21:19:00.257Z,12.80
2018-06-23T21:21:28.764Z,12.80
2018-06-23T21:23:57.216Z,12.80
2018-06-23T21:26:25.697Z,12.80
2018-06-23T21:28:54.215Z,12.70
2018-06-23T21:31:22.644Z,12.80
2018-06-23T21:33:51.256Z,12.80
2018-06-23T21:36:19.701Z,12.80
2018-06-23T21:38:48.143Z,12.80
2018-06-23T21:41:16.589Z,12.80
2018-06-23T21:43:45.165Z,12.80
2018-06-23T21:46:13.619Z,12.80
2018-06-23T21:48:42.183Z,12.70
2018-06-23T21:51:10.595Z,12.70
2018-06-23T21:53:39.114Z,12.80
2018-06-23T21:56:07.514Z,12.80
2018-06-23T21:58:35.989Z,12.80
2018-06-23T22:01:04.426Z,12.80
2018-06-23T22:03:33.029Z,12.80
2018-06-23T22:06:01.486Z,12.90
2018-06-23T22:08:29.893Z,12.90
2018-06-23T22:10:58.329Z,12.90
2018-06-23T22:13:26.818Z,12.80
2018-06-23T22:15:55.229Z,12.90
2018-06-23T22:18:23.644Z,12.80
2018-06-23T22:23:20.245Z,12.80
2018-06-23T22:25:48.624Z,12.80
2018-06-23T22:28:17.042Z,12.80
2018-06-23T22:30:45.432Z,12.80
2018-06-23T22:33:13.940Z,12.80
2018-06-23T22:35:42.312Z,12.70
2018-06-23T22:40:38.816Z,12.70
2018-06-23T22:43:07.231Z,12.70
2018-06-23T22:45:35.632Z,12.70
2018-06-23T22:48:04.144Z,12.70
2018-06-23T22:50:32.633Z,12.70
2018-06-23T22:53:01.026Z,12.70
2018-06-23T22:55:29.463Z,12.60
2018-06-23T22:57:57.905Z,12.60
2018-06-23T23:00:26.345Z,12.70
2018-06-23T23:02:54.745Z,12.70
2018-06-23T23:05:23.217Z,12.70
2018-06-23T23:07:51.609Z,12.70
2018-06-23T23:10:20.053Z,12.80
2018-06-23T23:12:48.560Z,12.80
2018-06-23T23:15:16.966Z,12.80
2018-06-23T23:17:45.343Z,12.80
2018-06-23T23:20:13.788Z,12.80
2018-06-23T23:22:42.194Z,12.80
2018-06-23T23:25:10.648Z,12.80
2018-06-23T23:27:39.050Z,12.80
2018-06-23T23:30:08.079Z,12.70
2018-06-23T23:32:37.119Z,12.70
2018-06-23T23:35:05.569Z,12.60
2018-06-23T23:37:34.072Z,12.60
2018-06-23T23:40:02.525Z,12.60
2018-06-23T23:42:30.973Z,12.60
2018-06-23T23:44:59.525Z,12.60
2018-06-23T23:47:27.898Z,12.60
2018-06-23T23:49:56.310Z,12.60
2018-06-23T23:52:24.743Z,12.60
2018-06-23T23:54:53.251Z,12.60
2018-06-23T23:57:21.708Z,12.60
2018-06-23T23:59:50.237Z,12.60
